createdAt,value
2019-05-20T00:00:50.018Z,23.63
2019-05-20T00:03:24.051Z,23.65
2019-05-20T00:05:58.196Z,23.65
2019-05-20T00:08:32.601Z,23.61
2019-05-20T00:11:06.813Z,23.51
2019-05-20T00:13:41.343Z,23.57
2019-05-20T00:16:15.417Z,23.91
2019-05-20T00:18:49.790Z,23.90
2019-05-20T00:21:24.188Z,23.61
2019-05-20T00:23:58.434Z,23.58
2019-05-20T00:26:32.824Z,23.61
2019-05-20T00:29:07.147Z,23.58
2019-05-20T00:31:41.450Z,23.61
2019-05-20T00:34:15.732Z,23.60
2019-05-20T00:36:50.159Z,23.65
2019-05-20T00:39:24.083Z,24.00
2019-05-20T00:41:58.241Z,23.67
2019-05-20T00:44:32.393Z,23.48
2019-05-20T00:47:06.458Z,23.52
2019-05-20T00:49:40.682Z,23.54
2019-05-20T00:52:15.233Z,23.56
2019-05-20T00:54:49.341Z,23.55
2019-05-20T00:57:23.326Z,23.58
2019-05-20T00:59:57.287Z,23.70
2019-05-20T01:02:31.231Z,24.02
2019-05-20T01:05:05.346Z,23.71
2019-05-20T01:07:39.273Z,23.56
2019-05-20T01:10:13.511Z,23.55
2019-05-20T01:12:47.491Z,23.47
2019-05-20T01:15:22.066Z,23.46
2019-05-20T01:17:56.135Z,23.47
2019-05-20T01:20:30.209Z,23.48
2019-05-20T01:23:04.364Z,23.79
2019-05-20T01:25:38.447Z,23.98
2019-05-20T01:28:12.652Z,23.66
2019-05-20T01:30:46.819Z,23.61
2019-05-20T01:33:21.023Z,23.62
2019-05-20T01:35:55.535Z,23.62
2019-05-20T01:38:29.641Z,23.62
2019-05-20T01:41:03.778Z,23.57
2019-05-20T01:43:38.037Z,23.54
2019-05-20T01:46:13.044Z,23.58
2019-05-20T01:48:47.167Z,24.05
2019-05-20T01:51:21.234Z,23.93
2019-05-20T01:53:55.412Z,23.63
2019-05-20T01:56:29.659Z,23.60
2019-05-20T01:59:03.817Z,23.57
2019-05-20T02:01:38.107Z,23.58
2019-05-20T02:04:12.250Z,23.55
2019-05-20T02:06:46.451Z,23.56
2019-05-20T02:09:20.396Z,23.58
2019-05-20T02:11:54.463Z,23.51
2019-05-20T02:14:30.812Z,23.52
2019-05-20T02:17:04.979Z,23.52
2019-05-20T02:19:38.942Z,23.51
2019-05-20T02:22:13.059Z,23.51
2019-05-20T02:24:47.306Z,23.50
2019-05-20T02:27:21.414Z,23.50
2019-05-20T02:29:55.601Z,23.54
2019-05-20T02:32:29.927Z,23.53
2019-05-20T02:35:04.102Z,23.55
2019-05-20T02:37:38.245Z,23.56
2019-05-20T02:40:12.643Z,23.74
2019-05-20T02:42:46.630Z,24.01
2019-05-20T02:45:21.015Z,23.67
2019-05-20T02:47:55.125Z,23.57
2019-05-20T02:50:29.472Z,23.57
2019-05-20T02:53:04.150Z,23.56
2019-05-20T02:55:38.435Z,23.55
2019-05-20T02:58:13.190Z,23.56
2019-05-20T03:00:47.362Z,23.58
2019-05-20T03:03:21.560Z,23.91
2019-05-20T03:05:55.968Z,24.01
2019-05-20T03:08:30.066Z,23.69
2019-05-20T03:11:04.467Z,23.59
2019-05-20T03:13:38.538Z,23.55
2019-05-20T03:16:15.612Z,23.53
2019-05-20T03:18:49.103Z,23.50
2019-05-20T03:21:23.357Z,23.50
2019-05-20T03:23:57.828Z,23.66
2019-05-20T03:26:32.249Z,24.00
2019-05-20T03:29:06.454Z,24.19
2019-05-20T03:31:40.455Z,24.70
2019-05-20T03:34:41.581Z,25.09
2019-05-20T03:36:50.546Z,25.37
2019-05-20T03:39:25.080Z,25.57
2019-05-20T03:41:59.169Z,25.70
2019-05-20T03:44:33.414Z,25.82
2019-05-20T03:47:07.571Z,25.91
2019-05-20T03:49:41.614Z,26.04
2019-05-20T03:52:15.615Z,26.13
2019-05-20T03:54:49.843Z,26.18
2019-05-20T03:57:23.949Z,26.23
2019-05-20T03:59:57.996Z,26.26
2019-05-20T04:02:31.820Z,26.32
2019-05-20T04:05:06.224Z,26.37
2019-05-20T04:07:40.324Z,26.43
2019-05-20T04:10:14.611Z,26.46
2019-05-20T04:12:48.773Z,26.50
2019-05-20T04:15:23.008Z,26.55
2019-05-20T04:17:57.127Z,26.57
2019-05-20T04:20:31.485Z,26.61
2019-05-20T04:23:05.703Z,26.67
2019-05-20T04:25:39.745Z,26.70
2019-05-20T04:28:13.762Z,26.75
2019-05-20T04:30:48.138Z,26.79
2019-05-20T04:33:22.250Z,26.80
2019-05-20T04:35:56.556Z,26.83
2019-05-20T04:38:30.486Z,26.85
2019-05-20T04:41:04.634Z,26.89
2019-05-20T04:43:38.876Z,26.93
2019-05-20T04:46:13.118Z,26.94
2019-05-20T04:48:48.325Z,26.97
2019-05-20T04:51:22.402Z,26.99
2019-05-20T04:53:56.569Z,27.03
2019-05-20T04:56:30.771Z,27.05
2019-05-20T04:59:04.994Z,27.11
2019-05-20T05:01:39.282Z,27.15
2019-05-20T05:04:13.455Z,27.16
2019-05-20T05:06:47.693Z,27.20
2019-05-20T05:09:23.108Z,27.25
2019-05-20T05:11:57.276Z,27.30
2019-05-20T05:14:31.282Z,27.31
2019-05-20T05:17:05.715Z,27.34
2019-05-20T05:19:40.020Z,27.34
2019-05-20T05:22:14.229Z,27.33
2019-05-20T05:24:48.785Z,27.35
2019-05-20T05:27:22.959Z,27.39
2019-05-20T05:29:57.448Z,27.42
2019-05-20T05:32:44.871Z,27.43
2019-05-20T05:35:19.786Z,27.46
2019-05-20T05:37:55.107Z,27.46
2019-05-20T05:40:32.552Z,27.47
2019-05-20T05:43:06.926Z,27.50
2019-05-20T05:45:41.038Z,27.52
2019-05-20T05:48:15.114Z,27.59
2019-05-20T05:50:49.596Z,27.62
2019-05-20T05:53:23.760Z,27.63
2019-05-20T05:55:58.246Z,27.64
2019-05-20T05:58:33.327Z,27.66
2019-05-20T06:01:07.658Z,27.64
2019-05-20T06:03:41.870Z,27.66
2019-05-20T06:06:16.270Z,27.67
2019-05-20T06:08:50.403Z,27.69
2019-05-20T06:11:24.757Z,27.72
2019-05-20T06:13:58.783Z,27.73
2019-05-20T06:16:36.487Z,27.74
2019-05-20T06:19:09.436Z,27.77
2019-05-20T06:21:44.288Z,27.78
2019-05-20T06:24:18.220Z,27.81
2019-05-20T06:26:52.857Z,27.85
2019-05-20T06:29:26.848Z,27.85
2019-05-20T06:32:02.125Z,27.90
2019-05-20T06:34:36.209Z,27.93
2019-05-20T06:37:12.586Z,27.96
2019-05-20T06:39:47.065Z,27.98
2019-05-20T06:42:21.352Z,27.99
2019-05-20T06:44:57.406Z,28.00
2019-05-20T06:47:31.663Z,28.07
2019-05-20T06:50:06.036Z,28.08
2019-05-20T06:52:41.316Z,28.11
2019-05-20T06:55:15.876Z,28.11
2019-05-20T06:57:50.090Z,28.15
2019-05-20T07:00:35.692Z,28.15
2019-05-20T07:03:10.087Z,28.19
2019-05-20T07:05:44.355Z,28.21
2019-05-20T07:08:18.597Z,28.23
2019-05-20T07:10:52.893Z,28.31
2019-05-20T07:13:27.251Z,28.36
2019-05-20T07:16:01.506Z,28.33
2019-05-20T07:18:35.579Z,28.34
2019-05-20T07:21:10.407Z,28.38
2019-05-20T07:23:44.518Z,28.41
2019-05-20T07:26:18.565Z,28.40
2019-05-20T07:28:53.848Z,28.43
2019-05-20T07:31:27.809Z,28.44
2019-05-20T07:34:01.869Z,28.44
2019-05-20T07:36:36.220Z,28.48
2019-05-20T07:39:10.732Z,28.50
2019-05-20T07:41:44.970Z,28.51
2019-05-20T07:44:19.747Z,28.54
2019-05-20T07:46:54.772Z,28.57
2019-05-20T07:49:29.420Z,28.59
2019-05-20T07:52:03.615Z,28.60
2019-05-20T07:54:38.548Z,28.63
2019-05-20T07:57:15.960Z,28.67
2019-05-20T07:59:53.335Z,28.69
2019-05-20T08:02:28.831Z,28.71
2019-05-20T08:05:03.657Z,28.76
2019-05-20T08:07:51.314Z,28.78
2019-05-20T08:10:15.119Z,28.79
2019-05-20T08:12:49.404Z,28.81
2019-05-20T08:15:23.947Z,28.83
2019-05-20T08:17:58.565Z,28.86
2019-05-20T08:20:33.037Z,28.87
2019-05-20T08:23:07.299Z,28.91
2019-05-20T08:25:41.708Z,28.97
2019-05-20T08:28:15.984Z,28.99
2019-05-20T08:30:50.365Z,28.99
2019-05-20T08:33:24.617Z,29.00
2019-05-20T08:36:00.157Z,29.02
2019-05-20T08:38:34.413Z,29.03
2019-05-20T08:41:08.917Z,29.04
2019-05-20T08:43:43.282Z,29.08
2019-05-20T08:46:17.714Z,29.08
2019-05-20T08:48:52.184Z,29.08
2019-05-20T08:51:26.244Z,29.10
2019-05-20T08:54:00.443Z,29.13
2019-05-20T08:56:34.816Z,29.18
2019-05-20T08:59:09.295Z,29.18
2019-05-20T09:01:43.678Z,29.18
2019-05-20T09:04:18.217Z,29.22
2019-05-20T09:06:52.807Z,29.23
2019-05-20T09:09:27.609Z,29.25
2019-05-20T09:12:02.495Z,29.26
2019-05-20T09:14:40.253Z,29.33
2019-05-20T09:17:12.875Z,29.44
2019-05-20T09:19:47.626Z,29.49
2019-05-20T09:22:21.742Z,29.53
2019-05-20T09:24:56.467Z,28.93
2019-05-20T09:27:30.886Z,28.13
2019-05-20T09:30:06.209Z,27.66
2019-05-20T09:32:42.958Z,27.25
2019-05-20T09:35:17.997Z,27.10
2019-05-20T09:37:51.954Z,26.88
2019-05-20T09:40:43.557Z,26.73
2019-05-20T09:43:18.202Z,26.66
2019-05-20T09:46:06.311Z,26.57
2019-05-20T09:48:28.689Z,26.56
2019-05-20T09:51:03.344Z,26.54
2019-05-20T09:53:37.720Z,26.48
2019-05-20T09:56:13.332Z,26.45
2019-05-20T09:58:47.651Z,26.39
2019-05-20T10:01:22.621Z,26.30
2019-05-20T10:03:56.737Z,26.29
2019-05-20T10:06:31.122Z,26.21
2019-05-20T10:09:05.802Z,26.20
2019-05-20T10:11:40.276Z,26.20
2019-05-20T10:14:14.732Z,26.09
2019-05-20T10:16:49.088Z,26.10
2019-05-20T10:19:23.534Z,26.07
2019-05-20T10:21:57.794Z,26.09
2019-05-20T10:24:32.174Z,26.05
2019-05-20T10:27:06.403Z,25.91
2019-05-20T10:29:40.596Z,25.92
2019-05-20T10:32:15.140Z,25.94
2019-05-20T10:34:49.269Z,25.91
2019-05-20T10:37:23.049Z,25.89
2019-05-20T10:39:57.103Z,25.89
2019-05-20T10:42:31.301Z,25.87
2019-05-20T10:45:06.188Z,25.86
2019-05-20T10:47:40.281Z,25.76
2019-05-20T10:50:14.592Z,25.79
2019-05-20T10:52:49.782Z,25.76
2019-05-20T10:55:24.506Z,25.77
2019-05-20T10:57:58.843Z,25.80
2019-05-20T11:00:33.637Z,25.88
2019-05-20T11:03:07.756Z,25.91
2019-05-20T11:05:41.903Z,25.83
2019-05-20T11:08:15.962Z,25.66
2019-05-20T11:10:50.519Z,25.82
2019-05-20T11:13:25.665Z,25.79
2019-05-20T11:16:01.146Z,25.77
2019-05-20T11:18:36.472Z,25.48
2019-05-20T11:21:11.408Z,25.54
2019-05-20T11:23:46.359Z,25.62
2019-05-20T11:26:21.800Z,25.62
2019-05-20T11:28:57.187Z,25.72
2019-05-20T11:31:33.044Z,25.59
2019-05-20T11:34:08.516Z,25.48
2019-05-20T11:36:44.268Z,25.44
2019-05-20T11:39:32.385Z,25.52
2019-05-20T11:41:55.678Z,25.55
2019-05-20T11:44:31.156Z,25.52
2019-05-20T11:47:06.220Z,25.41
2019-05-20T11:49:40.966Z,25.37
2019-05-20T11:52:16.692Z,25.43
2019-05-20T11:54:51.468Z,25.40
2019-05-20T11:57:26.493Z,25.48
2019-05-20T12:00:01.733Z,25.52
2019-05-20T12:02:37.210Z,25.34
2019-05-20T12:05:12.556Z,25.35
2019-05-20T12:07:47.597Z,25.41
2019-05-20T12:10:22.992Z,25.34
2019-05-20T12:12:58.075Z,25.23
2019-05-20T12:15:33.178Z,25.34
2019-05-20T12:18:08.402Z,25.33
2019-05-20T12:20:43.738Z,25.33
2019-05-20T12:23:18.797Z,25.28
2019-05-20T12:25:53.373Z,25.41
2019-05-20T12:28:27.537Z,25.41
2019-05-20T12:31:02.875Z,25.35
2019-05-20T12:33:37.443Z,25.10
2019-05-20T12:36:12.060Z,25.30
2019-05-20T12:38:46.771Z,25.18
2019-05-20T12:41:21.237Z,25.19
2019-05-20T12:44:10.853Z,25.24
2019-05-20T12:46:33.321Z,25.00
2019-05-20T12:49:07.823Z,25.08
2019-05-20T12:51:44.150Z,25.05
2019-05-20T12:54:19.254Z,25.12
2019-05-20T12:56:53.822Z,24.86
2019-05-20T12:59:28.360Z,24.92
2019-05-20T13:02:02.667Z,24.89
2019-05-20T13:04:38.439Z,24.81
2019-05-20T13:07:13.143Z,24.73
2019-05-20T13:09:47.955Z,24.82
2019-05-20T13:12:22.954Z,24.71
2019-05-20T13:14:57.778Z,24.84
2019-05-20T13:17:32.659Z,25.14
2019-05-20T13:20:07.663Z,25.11
2019-05-20T13:22:42.260Z,25.03
2019-05-20T13:25:16.753Z,24.99
2019-05-20T13:27:51.537Z,24.91
2019-05-20T13:30:26.068Z,25.50
2019-05-20T13:33:00.359Z,26.43
2019-05-20T13:35:35.355Z,27.13
2019-05-20T13:38:10.028Z,27.43
2019-05-20T13:40:47.133Z,27.76
2019-05-20T13:43:21.554Z,27.98
2019-05-20T13:45:55.974Z,28.15
2019-05-20T13:48:30.103Z,28.25
2019-05-20T13:51:04.490Z,28.33
2019-05-20T13:53:38.855Z,28.43
2019-05-20T13:56:13.198Z,28.53
2019-05-20T13:58:47.212Z,28.64
2019-05-20T14:01:21.538Z,28.73
2019-05-20T14:03:57.232Z,28.89
2019-05-20T14:06:32.312Z,29.02
2019-05-20T14:09:07.787Z,29.16
2019-05-20T14:11:42.796Z,29.21
2019-05-20T14:14:17.242Z,29.19
2019-05-20T14:16:51.290Z,29.21
2019-05-20T14:19:25.756Z,29.24
2019-05-20T14:22:00.552Z,29.28
2019-05-20T14:24:34.792Z,29.30
2019-05-20T14:27:08.759Z,29.33
2019-05-20T14:29:42.659Z,29.38
2019-05-20T14:32:16.930Z,29.40
2019-05-20T14:34:51.175Z,29.39
2019-05-20T14:37:25.325Z,29.43
2019-05-20T14:39:59.529Z,29.45
2019-05-20T14:42:33.517Z,29.48
2019-05-20T14:45:08.420Z,29.50
2019-05-20T14:47:42.387Z,29.55
2019-05-20T14:50:16.812Z,29.58
2019-05-20T14:52:51.674Z,29.65
2019-05-20T14:55:25.945Z,29.65
2019-05-20T14:57:59.894Z,29.67
2019-05-20T15:00:34.252Z,29.78
2019-05-20T15:03:08.331Z,29.78
2019-05-20T15:05:45.258Z,29.85
2019-05-20T15:08:19.513Z,29.87
2019-05-20T15:10:54.634Z,29.90
2019-05-20T15:13:29.690Z,29.93
2019-05-20T15:16:04.060Z,29.94
2019-05-20T15:18:38.285Z,29.98
2019-05-20T15:21:12.495Z,29.99
2019-05-20T15:23:46.889Z,30.00
2019-05-20T15:26:21.182Z,30.05
2019-05-20T15:28:55.234Z,30.05
2019-05-20T15:31:29.325Z,30.08
2019-05-20T15:34:03.562Z,30.09
2019-05-20T15:36:37.579Z,30.12
2019-05-20T15:39:11.730Z,30.13
2019-05-20T15:41:46.160Z,30.14
2019-05-20T15:44:20.570Z,30.18
2019-05-20T15:46:54.554Z,30.20
2019-05-20T15:49:29.274Z,30.24
2019-05-20T15:52:03.269Z,30.15
2019-05-20T15:54:37.776Z,29.61
2019-05-20T15:57:11.730Z,29.05
2019-05-20T15:59:46.829Z,28.70
2019-05-20T16:02:21.111Z,28.42
2019-05-20T16:04:55.296Z,28.21
2019-05-20T16:07:30.870Z,28.09
2019-05-20T16:10:05.120Z,27.97
2019-05-20T16:12:39.311Z,27.85
2019-05-20T16:15:13.680Z,27.74
2019-05-20T16:17:48.600Z,27.75
2019-05-20T16:20:23.007Z,28.01
2019-05-20T16:22:57.377Z,28.14
2019-05-20T16:25:31.282Z,27.97
2019-05-20T16:28:05.710Z,27.81
2019-05-20T16:30:39.644Z,27.68
2019-05-20T16:33:13.703Z,27.60
2019-05-20T16:35:48.045Z,27.46
2019-05-20T16:38:22.431Z,27.47
2019-05-20T16:40:56.355Z,27.33
2019-05-20T16:43:30.655Z,27.23
2019-05-20T16:46:04.910Z,27.11
2019-05-20T16:48:39.066Z,27.02
2019-05-20T16:51:13.421Z,26.96
2019-05-20T16:53:47.560Z,26.87
2019-05-20T16:56:21.780Z,26.79
2019-05-20T16:58:55.948Z,26.72
2019-05-20T17:01:30.429Z,26.69
2019-05-20T17:04:04.532Z,26.61
2019-05-20T17:06:38.562Z,26.57
2019-05-20T17:09:12.643Z,26.56
2019-05-20T17:11:47.002Z,26.54
2019-05-20T17:14:21.446Z,26.53
2019-05-20T17:16:55.455Z,26.49
2019-05-20T17:19:30.332Z,26.48
2019-05-20T17:22:04.557Z,26.44
2019-05-20T17:24:38.662Z,26.43
2019-05-20T17:27:12.925Z,26.43
2019-05-20T17:29:47.341Z,26.39
2019-05-20T17:32:21.390Z,26.34
2019-05-20T17:34:55.684Z,26.32
2019-05-20T17:37:29.773Z,26.32
2019-05-20T17:40:03.973Z,26.26
2019-05-20T17:42:37.955Z,26.26
2019-05-20T17:45:13.319Z,26.22
2019-05-20T17:47:47.674Z,26.20
2019-05-20T17:50:23.753Z,26.21
2019-05-20T17:52:57.850Z,26.17
2019-05-20T17:55:32.289Z,26.15
2019-05-20T17:58:06.687Z,26.15
2019-05-20T18:00:40.883Z,26.14
2019-05-20T18:03:15.066Z,26.06
2019-05-20T18:05:49.471Z,25.98
2019-05-20T18:08:25.049Z,25.94
2019-05-20T18:10:59.284Z,26.09
2019-05-20T18:13:33.447Z,26.06
2019-05-20T18:16:07.533Z,26.05
2019-05-20T18:18:42.868Z,25.99
2019-05-20T18:21:16.827Z,25.94
2019-05-20T18:23:50.825Z,25.91
2019-05-20T18:26:25.120Z,25.90
2019-05-20T18:28:59.248Z,25.86
2019-05-20T18:31:33.588Z,25.83
2019-05-20T18:34:07.825Z,25.83
2019-05-20T18:36:42.235Z,25.82
2019-05-20T18:39:16.775Z,25.82
2019-05-20T18:41:51.024Z,25.80
2019-05-20T18:44:25.243Z,25.80
2019-05-20T18:46:59.062Z,25.77
2019-05-20T18:49:33.303Z,25.70
2019-05-20T18:52:07.546Z,25.65
2019-05-20T18:54:42.047Z,25.63
2019-05-20T18:57:16.177Z,25.63
2019-05-20T18:59:50.147Z,25.59
2019-05-20T19:02:24.225Z,25.57
2019-05-20T19:04:58.465Z,25.58
2019-05-20T19:07:32.393Z,25.64
2019-05-20T19:10:06.665Z,25.66
2019-05-20T19:12:40.901Z,25.66
2019-05-20T19:15:16.153Z,25.64
2019-05-20T19:17:50.295Z,25.65
2019-05-20T19:20:24.311Z,25.60
2019-05-20T19:22:58.571Z,25.54
2019-05-20T19:25:38.034Z,25.53
2019-05-20T19:28:11.829Z,25.50
2019-05-20T19:30:46.046Z,25.47
2019-05-20T19:33:20.349Z,25.44
2019-05-20T19:35:54.361Z,25.43
2019-05-20T19:38:32.842Z,25.44
2019-05-20T19:41:04.596Z,25.37
2019-05-20T19:43:39.226Z,25.37
2019-05-20T19:46:13.429Z,25.35
2019-05-20T19:48:47.410Z,25.30
2019-05-20T19:51:21.413Z,25.28
2019-05-20T19:53:55.541Z,25.23
2019-05-20T19:56:29.727Z,25.21
2019-05-20T19:59:03.846Z,25.22
2019-05-20T20:01:38.016Z,25.26
2019-05-20T20:04:12.157Z,25.36
2019-05-20T20:06:46.378Z,25.35
2019-05-20T20:09:20.364Z,25.28
2019-05-20T20:11:54.715Z,24.81
2019-05-20T20:14:28.576Z,24.51
2019-05-20T20:17:02.623Z,24.38
2019-05-20T20:19:36.877Z,24.30
2019-05-20T20:22:11.119Z,24.21
2019-05-20T20:24:45.313Z,24.18
2019-05-20T20:27:19.641Z,24.13
2019-05-20T20:29:53.752Z,24.06
2019-05-20T20:32:37.559Z,24.02
2019-05-20T20:35:03.899Z,23.98
2019-05-20T20:37:37.931Z,24.21
2019-05-20T20:40:12.340Z,24.38
2019-05-20T20:42:46.391Z,24.27
2019-05-20T20:45:21.974Z,24.01
2019-05-20T20:47:56.245Z,23.93
2019-05-20T20:50:30.517Z,23.89
2019-05-20T20:53:04.467Z,23.85
2019-05-20T20:55:38.727Z,23.82
2019-05-20T20:58:12.950Z,23.95
2019-05-20T21:00:47.709Z,24.31
2019-05-20T21:03:21.563Z,24.34
2019-05-20T21:05:55.953Z,23.88
2019-05-20T21:08:29.894Z,23.72
2019-05-20T21:11:04.463Z,23.76
2019-05-20T21:13:38.522Z,23.74
2019-05-20T21:16:12.533Z,23.77
2019-05-20T21:18:46.722Z,23.84
2019-05-20T21:21:20.845Z,23.88
2019-05-20T21:23:54.888Z,24.23
2019-05-20T21:26:28.913Z,24.30
2019-05-20T21:29:03.819Z,24.19
2019-05-20T21:31:37.928Z,24.16
2019-05-20T21:34:12.036Z,24.15
2019-05-20T21:36:48.091Z,24.19
2019-05-20T21:39:21.711Z,24.22
2019-05-20T21:41:56.360Z,24.07
2019-05-20T21:44:30.394Z,23.87
2019-05-20T21:47:04.450Z,23.82
2019-05-20T21:49:38.293Z,23.78
2019-05-20T21:52:12.477Z,23.74
2019-05-20T21:54:47.451Z,23.71
2019-05-20T21:57:22.054Z,23.69
2019-05-20T21:59:56.404Z,23.65
2019-05-20T22:02:30.552Z,23.69
2019-05-20T22:05:04.790Z,23.87
2019-05-20T22:07:39.460Z,24.00
2019-05-20T22:10:13.843Z,24.12
2019-05-20T22:12:47.772Z,24.20
2019-05-20T22:15:24.076Z,24.31
2019-05-20T22:17:58.139Z,24.33
2019-05-20T22:20:32.610Z,24.34
2019-05-20T22:23:43.692Z,24.22
2019-05-20T22:26:17.518Z,24.18
2019-05-20T22:28:51.729Z,24.13
2019-05-20T22:31:25.614Z,24.13
2019-05-20T22:33:59.826Z,24.07
2019-05-20T22:36:34.139Z,24.06
2019-05-20T22:39:09.572Z,24.05
2019-05-20T22:41:43.529Z,24.03
2019-05-20T22:44:17.857Z,24.05
2019-05-20T22:46:52.274Z,24.05
2019-05-20T22:49:26.484Z,24.07
2019-05-20T22:52:00.530Z,24.08
2019-05-20T22:54:34.764Z,24.08
2019-05-20T22:57:08.799Z,24.10
2019-05-20T22:59:43.178Z,24.06
2019-05-20T23:02:17.255Z,24.03
2019-05-20T23:04:51.552Z,23.98
2019-05-20T23:07:25.631Z,23.97
2019-05-20T23:10:00.010Z,23.98
2019-05-20T23:12:34.118Z,23.97
2019-05-20T23:15:08.362Z,23.97
2019-05-20T23:17:43.087Z,23.97
2019-05-20T23:20:17.541Z,23.95
2019-05-20T23:22:51.700Z,23.93
2019-05-20T23:25:26.208Z,23.93
2019-05-20T23:28:00.563Z,23.93
2019-05-20T23:30:35.816Z,23.92
2019-05-20T23:33:09.883Z,23.86
2019-05-20T23:35:44.097Z,23.91
2019-05-20T23:38:18.400Z,24.00
2019-05-20T23:40:52.394Z,24.06
2019-05-20T23:43:26.260Z,24.09
2019-05-20T23:46:00.322Z,24.10
2019-05-20T23:48:34.515Z,24.31
2019-05-20T23:51:08.789Z,24.61
2019-05-20T23:53:42.709Z,24.01
2019-05-20T23:56:16.962Z,23.61
2019-05-20T23:58:51.247Z,23.58
